Liberty Pride — KRAU — position and weather

sailwx.info

Track history (hours):
 
Tides and Currents Weather Stations Pressure Air Temp Water Temp Dewpoint Dewpoint Depression Visibility Wind Speed Wind Dir Waves Ship Positions

Liberty Pride

Owner: Liberty Pride Corporation, Lake Success, NY. More information available from US FCC via Universal Licensing System and Coast Guard Vessel Documentation Center.

Last reported at 2016-Jun-27 16:30 UTC. Time now 2016-Jun-27 18:41 UTC.
Position N 33°08' E 034°17'.

Length 200 m; draft 8.4 m.

Type: Cargo ship. MMSI: 368473000.

Date/timePositionNaut miles runAvg speedWind from/ knotsBaromVisibWave heightAir tempDewpointWater temp
2016-Jun-27 16:30N 33°08' E 034°17'2519.2
2016-Jun-27 15:12N 33°26' E 034°38'1219.3
2016-Jun-27 14:33N 33°35' E 034°49'2019.6
2016-Jun-27 13:34N 33°49' E 035°06'1717.0
2016-Jun-27 12:32N 33°56' E 035°25'3 0.3
2016-Jun-27 02:33N 33°55' E 035°22'1818.5
2016-Jun-27 01:33N 33°50' E 035°01'1918.9
2016-Jun-27 00:34N 33°41' E 034°41'1919.0
2016-Jun-26 23:33N 33°33' E 034°20'1919.1
2016-Jun-26 22:33N 33°24' E 033°60'1919.3
2016-Jun-26 21:34N 33°15' E 033°39'1918.8
2016-Jun-26 20:34N 33°06' E 033°19'2018.6
2016-Jun-26 19:30N 32°58' E 032°58'1818.6
2016-Jun-26 18:33N 32°50' E 032°40'1818.6
2016-Jun-26 17:33N 32°41' E 032°20'2018.4
2016-Jun-26 16:28N 32°32' E 031°59'1718.8
2016-Jun-26 15:33N 32°24' E 031°41'1918.7
2016-Jun-26 14:30N 32°15' E 031°20'1818.7
2016-Jun-26 13:33N 32°07' E 031°02'1918.7
2016-Jun-26 12:33N 31°58' E 030°42'1919.1
2016-Jun-26 11:33N 31°49' E 030°22'2019.0
2016-Jun-26 10:29N 31°40' E 030°01'1718.5
2016-Jun-26 09:33N 31°24' E 029°53'1514.6
2016-Jun-26 08:33N 31°11' E 029°48'  
2016-Jun-23 14:21N 36°17' E 015°13'1518.7
2016-Jun-23 13:33N 36°23' E 014°56'1918.7
2016-Jun-23 12:33N 36°30' E 014°34'1933.3
2016-Jun-23 12:00N 36°36' E 014°12'1 3.1 270 / 111023.510.8 0.526.018.7
2016-Jun-23 11:33N 36°37' E 014°12'1919.4
2016-Jun-23 10:33N 36°45' E 013°50'1919.0
2016-Jun-23 09:33N 36°52' E 013°28'9218.4
2016-Jun-23 04:33N 37°49' E 011°57'30218.2
2016-Jun-22 12:00N 42°36' E 009°54'1534.8 350 / 151030.510.8 1.027.018.1
2016-Jun-22 11:33N 42°51' E 009°55'1919.1
2016-Jun-22 10:33N 43°09' E 010°03'1818.0
2016-Jun-22 09:33N 43°27' E 010°09'9 9.0
2016-Jun-22 08:33N 43°33' E 010°18'0 0.0
2016-Jun-22 07:34N 43°33' E 010°18'0 0.0
2016-Jun-22 06:34N 43°33' E 010°18'0 0.0
2016-Jun-22 05:34N 43°33' E 010°18'0 0.0
2016-Jun-22 04:34N 43°33' E 010°18'0 0.0
2016-Jun-22 03:33N 43°33' E 010°18'0 0.0
2016-Jun-22 02:33N 43°33' E 010°18'0 0.0
2016-Jun-22 01:33N 43°33' E 010°18'0 0.0
2016-Jun-22 00:33N 43°33' E 010°18'0 0.0
2016-Jun-21 23:34N 43°33' E 010°18'0 0.0
2016-Jun-21 22:33N 43°33' E 010°18'0 0.0
2016-Jun-21 21:33N 43°33' E 010°18'0 0.0
2016-Jun-21 20:30N 43°33' E 010°18'0 0.0
2016-Jun-21 19:33N 43°33' E 010°18'0 0.0
2016-Jun-21 18:33N 43°33' E 010°18'4 4.0
2016-Jun-21 17:33N 43°30' E 010°15'4 3.8
2016-Jun-21 16:33N 43°27' E 010°11'1413.7
2016-Jun-21 15:34N 43°18' E 009°58'1918.7
2016-Jun-21 14:33N 43°11' E 009°33'1818.1
2016-Jun-21 13:33N 43°03' E 009°11'1918.8
2016-Jun-21 12:33N 42°50' E 008°53'1933.3
2016-Jun-21 12:00N 42°36' E 008°36'2 4.4 230 / 61029.610.8 0.522.015.8
2016-Jun-21 11:34N 42°37' E 008°34'1919.3
2016-Jun-21 10:33N 42°24' E 008°15'1919.3
2016-Jun-21 09:33N 42°10' E 007°56'1919.0
2016-Jun-21 08:33N 41°57' E 007°37'2018.8
2016-Jun-21 07:30N 41°44' E 007°18'8018.9
2016-Jun-21 03:16N 40°48' E 006°01'15118.7
2016-Jun-20 19:11N 39°12' E 003°30'1218.8
2016-Jun-20 18:33N 39°05' E 003°17'1918.7
2016-Jun-20 17:33N 38°56' E 002°57'1918.9
2016-Jun-20 16:33N 38°46' E 002°36'2819.2
2016-Jun-20 15:07N 38°31' E 002°06'1419.1
2016-Jun-20 14:23N 38°23' E 001°51'5020.8
2016-Jun-20 12:00N 37°54' E 001°00'9617.6 180 / 101030.210.8 0.521.010.9
2016-Jun-20 06:33N 37°06' W 000°44'2018.4
2016-Jun-20 05:27N 36°55' W 001°06'2218.6
2016-Jun-20 04:15N 36°43' W 001°29'1218.1
2016-Jun-20 03:33N 36°37' W 001°42'1918.8
2016-Jun-20 02:32N 36°26' W 002°03'2118.6
2016-Jun-20 01:23N 36°19' W 002°28'1518.6
2016-Jun-20 00:33N 36°17' W 002°46'1919.0
2016-Jun-19 23:33N 36°14' W 003°10'9819.6
2016-Jun-19 18:33N 36°00' W 005°09'8118.5
2016-Jun-19 14:10N 35°19' W 006°36'4520.4
2016-Jun-19 12:00N 34°42' W 007°06'8118.1 150 / 71028.5 5.4 0.525.020.722.1
2016-Jun-19 07:32N 33°47' W 008°17'12616.7
2016-Jun-19 00:00N 32°00' W 009°36'4718.0 070 / 141029.5 5.4 1.018.017.718.2
2016-Jun-18 21:23N 31°18' W 010°00'1516.7
2016-Jun-18 20:30N 31°03' W 010°00'1816.7
2016-Jun-18 19:25N 30°45' W 010°01'1715.2
2016-Jun-18 18:19N 30°31' W 009°51'  
Track history (hours):
 
Tides and Currents Weather Stations Pressure Air Temp Water Temp Dewpoint Dewpoint Depression Visibility Wind Speed Wind Dir Waves Ship Positions

Liberty Pride

Owner: Liberty Pride Corporation, Lake Success, NY. More information available from US FCC via Universal Licensing System and Coast Guard Vessel Documentation Center.

Last reported at 2016-Jun-27 16:30 UTC. Time now 2016-Jun-27 18:41 UTC.
Position N 33°08' E 034°17'.

Length 200 m; draft 8.4 m.

Type: Cargo ship. MMSI: 368473000.

Date/timePositionNaut miles runAvg speedWind from/ knotsBaromVisibWave heightAir tempDewpointWater temp
2016-Jun-27 16:30N 33°08' E 034°17'2519.2
2016-Jun-27 15:12N 33°26' E 034°38'1219.3
2016-Jun-27 14:33N 33°35' E 034°49'2019.6
2016-Jun-27 13:34N 33°49' E 035°06'1717.0
2016-Jun-27 12:32N 33°56' E 035°25'3 0.3
2016-Jun-27 02:33N 33°55' E 035°22'1818.5
2016-Jun-27 01:33N 33°50' E 035°01'1918.9
2016-Jun-27 00:34N 33°41' E 034°41'1919.0
2016-Jun-26 23:33N 33°33' E 034°20'1919.1
2016-Jun-26 22:33N 33°24' E 033°60'1919.3
2016-Jun-26 21:34N 33°15' E 033°39'1918.8
2016-Jun-26 20:34N 33°06' E 033°19'2018.6
2016-Jun-26 19:30N 32°58' E 032°58'1818.6
2016-Jun-26 18:33N 32°50' E 032°40'1818.6
2016-Jun-26 17:33N 32°41' E 032°20'2018.4
2016-Jun-26 16:28N 32°32' E 031°59'1718.8
2016-Jun-26 15:33N 32°24' E 031°41'1918.7
2016-Jun-26 14:30N 32°15' E 031°20'1818.7
2016-Jun-26 13:33N 32°07' E 031°02'1918.7
2016-Jun-26 12:33N 31°58' E 030°42'1919.1
2016-Jun-26 11:33N 31°49' E 030°22'2019.0
2016-Jun-26 10:29N 31°40' E 030°01'1718.5
2016-Jun-26 09:33N 31°24' E 029°53'1514.6
2016-Jun-26 08:33N 31°11' E 029°48'  
2016-Jun-23 14:21N 36°17' E 015°13'1518.7
2016-Jun-23 13:33N 36°23' E 014°56'1918.7
2016-Jun-23 12:33N 36°30' E 014°34'1933.3
2016-Jun-23 12:00N 36°36' E 014°12'1 3.1 270 / 111023.510.8 0.526.018.7
2016-Jun-23 11:33N 36°37' E 014°12'1919.4
2016-Jun-23 10:33N 36°45' E 013°50'1919.0
2016-Jun-23 09:33N 36°52' E 013°28'9218.4
2016-Jun-23 04:33N 37°49' E 011°57'30218.2
2016-Jun-22 12:00N 42°36' E 009°54'1534.8 350 / 151030.510.8 1.027.018.1
2016-Jun-22 11:33N 42°51' E 009°55'1919.1
2016-Jun-22 10:33N 43°09' E 010°03'1818.0
2016-Jun-22 09:33N 43°27' E 010°09'9 9.0
2016-Jun-22 08:33N 43°33' E 010°18'0 0.0
2016-Jun-22 07:34N 43°33' E 010°18'0 0.0
2016-Jun-22 06:34N 43°33' E 010°18'0 0.0
2016-Jun-22 05:34N 43°33' E 010°18'0 0.0
2016-Jun-22 04:34N 43°33' E 010°18'0 0.0
2016-Jun-22 03:33N 43°33' E 010°18'0 0.0
2016-Jun-22 02:33N 43°33' E 010°18'0 0.0
2016-Jun-22 01:33N 43°33' E 010°18'0 0.0
2016-Jun-22 00:33N 43°33' E 010°18'0 0.0
2016-Jun-21 23:34N 43°33' E 010°18'0 0.0
2016-Jun-21 22:33N 43°33' E 010°18'0 0.0
2016-Jun-21 21:33N 43°33' E 010°18'0 0.0
2016-Jun-21 20:30N 43°33' E 010°18'0 0.0
2016-Jun-21 19:33N 43°33' E 010°18'0 0.0
2016-Jun-21 18:33N 43°33' E 010°18'4 4.0
2016-Jun-21 17:33N 43°30' E 010°15'4 3.8
2016-Jun-21 16:33N 43°27' E 010°11'1413.7
2016-Jun-21 15:34N 43°18' E 009°58'1918.7
2016-Jun-21 14:33N 43°11' E 009°33'1818.1
2016-Jun-21 13:33N 43°03' E 009°11'1918.8
2016-Jun-21 12:33N 42°50' E 008°53'1933.3
2016-Jun-21 12:00N 42°36' E 008°36'2 4.4 230 / 61029.610.8 0.522.015.8
2016-Jun-21 11:34N 42°37' E 008°34'1919.3
2016-Jun-21 10:33N 42°24' E 008°15'1919.3
2016-Jun-21 09:33N 42°10' E 007°56'1919.0
2016-Jun-21 08:33N 41°57' E 007°37'2018.8
2016-Jun-21 07:30N 41°44' E 007°18'8018.9
2016-Jun-21 03:16N 40°48' E 006°01'15118.7
2016-Jun-20 19:11N 39°12' E 003°30'1218.8
2016-Jun-20 18:33N 39°05' E 003°17'1918.7
2016-Jun-20 17:33N 38°56' E 002°57'1918.9
2016-Jun-20 16:33N 38°46' E 002°36'2819.2
2016-Jun-20 15:07N 38°31' E 002°06'1419.1
2016-Jun-20 14:23N 38°23' E 001°51'5020.8
2016-Jun-20 12:00N 37°54' E 001°00'9617.6 180 / 101030.210.8 0.521.010.9
2016-Jun-20 06:33N 37°06' W 000°44'2018.4
2016-Jun-20 05:27N 36°55' W 001°06'2218.6
2016-Jun-20 04:15N 36°43' W 001°29'1218.1
2016-Jun-20 03:33N 36°37' W 001°42'1918.8
2016-Jun-20 02:32N 36°26' W 002°03'2118.6
2016-Jun-20 01:23N 36°19' W 002°28'1518.6
2016-Jun-20 00:33N 36°17' W 002°46'1919.0
2016-Jun-19 23:33N 36°14' W 003°10'9819.6
2016-Jun-19 18:33N 36°00' W 005°09'8118.5
2016-Jun-19 14:10N 35°19' W 006°36'4520.4
2016-Jun-19 12:00N 34°42' W 007°06'8118.1 150 / 71028.5 5.4 0.525.020.722.1
2016-Jun-19 07:32N 33°47' W 008°17'12616.7
2016-Jun-19 00:00N 32°00' W 009°36'4718.0 070 / 141029.5 5.4 1.018.017.718.2
2016-Jun-18 21:23N 31°18' W 010°00'1516.7
2016-Jun-18 20:30N 31°03' W 010°00'1816.7
2016-Jun-18 19:25N 30°45' W 010°01'1715.2
2016-Jun-18 18:19N 30°31' W 009°51'  

Dump ship's entire track history